Schedule Details

Flight Number: ASXVIP9
Departure: Gdansk im. Lecha Walesy (EPGD) at 12:00
Arrival: Katowice Pyrzowice (EPKT) at 13:30
Route: IRLUN N133 NEGUV M66 KUKAM

Weather Information
EPGD 272230Z 06005KT 030V090 CAVOK 16/15 Q1025
EPKT 272230Z 08005KT CAVOK 17/11 Q1022

Schedule Frequency

Route Map